sensor_id;sensor_type;location;lat;lon;timestamp;pressure;altitude;pressure_sealevel;temperature;humidity
53089;BME280;38968;47.696;17.540;2023-03-26T00:00:37;9988717;;;11.09;49.32031
53089;BME280;38968;47.696;17.540;2023-03-26T00:05:36;9987903;;;11.23;48.65723
53089;BME280;38968;47.696;17.540;2023-03-26T00:10:37;9988542;;;11.1;49.02148
53089;BME280;38968;47.696;17.540;2023-03-26T00:15:36;9988431;;;11.2;48.38867
53089;BME280;38968;47.696;17.540;2023-03-26T00:20:35;9987444;;;11.34;48.12793
53089;BME280;38968;47.696;17.540;2023-03-26T00:25:37;9988181;;;11.15;48.29102
53089;BME280;38968;47.696;17.540;2023-03-26T00:30:36;9987371;;;11.28;48.09863
53089;BME280;38968;47.696;17.540;2023-03-26T00:35:37;9987109;;;11.28;48.06348
53089;BME280;38968;47.696;17.540;2023-03-26T00:40:36;9987372;;;11.26;48.17676
53089;BME280;38968;47.696;17.540;2023-03-26T00:45:36;9986876;;;11.54;47.74707
53089;BME280;38968;47.696;17.540;2023-03-26T00:50:36;9986117;;;11.42;47.81348
53089;BME280;38968;47.696;17.540;2023-03-26T00:55:36;9987020;;;11.29;48.50195
53089;BME280;38968;47.696;17.540;2023-03-26T01:00:45;9987483;;;11.14;48.81934
53089;BME280;38968;47.696;17.540;2023-03-26T01:05:42;9987281;;;11.29;48.57031
53089;BME280;38968;47.696;17.540;2023-03-26T01:10:36;9987683;;;11.45;48.04785
53089;BME280;38968;47.696;17.540;2023-03-26T01:15:36;9987165;;;11.42;47.98633
53089;BME280;38968;47.696;17.540;2023-03-26T01:20:38;9986638;;;11.03;48.48535
53089;BME280;38968;47.696;17.540;2023-03-26T01:25:37;9985273;;;11.29;47.76563
53089;BME280;38968;47.696;17.540;2023-03-26T01:30:45;9985038;;;11.17;47.89063
53089;BME280;38968;47.696;17.540;2023-03-26T01:35:47;9984033;;;10.97;48.29492
53089;BME280;38968;47.696;17.540;2023-03-26T01:45:37;9984347;;;11.13;47.97852
53089;BME280;38968;47.696;17.540;2023-03-26T01:50:36;9984248;;;11.18;47.8457
53089;BME280;38968;47.696;17.540;2023-03-26T02:00:47;9983022;;;11.2;47.66406
53089;BME280;38968;47.696;17.540;2023-03-26T02:05:51;9982164;;;11.15;47.76172
53089;BME280;38968;47.696;17.540;2023-03-26T02:10:39;9982545;;;10.99;48.31934
53089;BME280;38968;47.696;17.540;2023-03-26T02:15:36;9982212;;;10.91;48.5752
53089;BME280;38968;47.696;17.540;2023-03-26T02:20:36;9982359;;;10.61;49.54199
53089;BME280;38968;47.696;17.540;2023-03-26T02:25:36;9981394;;;10.64;49.78711
53089;BME280;38968;47.696;17.540;2023-03-26T02:30:36;9981941;;;10.52;50.04883
53089;BME280;38968;47.696;17.540;2023-03-26T02:35:36;9980937;;;10.76;49.34082
53089;BME280;38968;47.696;17.540;2023-03-26T02:40:36;9980859;;;10.7;49.58789
53089;BME280;38968;47.696;17.540;2023-03-26T02:45:37;9980778;;;10.67;49.88281
53089;BME280;38968;47.696;17.540;2023-03-26T02:50:36;9981214;;;10.68;50.11328
53089;BME280;38968;47.696;17.540;2023-03-26T02:55:35;9980384;;;10.89;49.87402
53089;BME280;38968;47.696;17.540;2023-03-26T03:00:36;9982002;;;11.08;49.58496
53089;BME280;38968;47.696;17.540;2023-03-26T03:05:35;9981820;;;11.12;49.93359
53089;BME280;38968;47.696;17.540;2023-03-26T03:10:35;9981352;;;11.28;49.22656
53089;BME280;38968;47.696;17.540;2023-03-26T03:15:35;9981947;;;11.34;49.10742
53089;BME280;38968;47.696;17.540;2023-03-26T03:20:36;9982687;;;11.15;49.95996
53089;BME280;38968;47.696;17.540;2023-03-26T03:25:36;9982777;;;11.13;49.78516
53089;BME280;38968;47.696;17.540;2023-03-26T03:30:36;9982146;;;10.81;50.70313
53089;BME280;38968;47.696;17.540;2023-03-26T03:35:36;9981031;;;10.72;51.10547
53089;BME280;38968;47.696;17.540;2023-03-26T03:40:36;9980888;;;10.57;51.83594
53089;BME280;38968;47.696;17.540;2023-03-26T03:45:36;9982186;;;10.61;52.19629
53089;BME280;38968;47.696;17.540;2023-03-26T03:50:36;9981055;;;10.59;52.37793
53089;BME280;38968;47.696;17.540;2023-03-26T03:55:36;9981328;;;10.53;52.49707
53089;BME280;38968;47.696;17.540;2023-03-26T04:00:36;9982136;;;10.41;52.75879
53089;BME280;38968;47.696;17.540;2023-03-26T04:05:36;9983274;;;10.38;53.25977
53089;BME280;38968;47.696;17.540;2023-03-26T04:10:35;9982998;;;9.94;54.12207
53089;BME280;38968;47.696;17.540;2023-03-26T04:15:35;9984495;;;10.36;53.18848
53089;BME280;38968;47.696;17.540;2023-03-26T04:20:37;9982875;;;9.62;55.51367
53089;BME280;38968;47.696;17.540;2023-03-26T04:25:36;9982559;;;9.96;55.19043
53089;BME280;38968;47.696;17.540;2023-03-26T04:30:36;9982552;;;10;55.11621
53089;BME280;38968;47.696;17.540;2023-03-26T04:35:36;9981954;;;9.94;55.89844
53089;BME280;38968;47.696;17.540;2023-03-26T04:40:36;9980745;;;9.88;56.40527
53089;BME280;38968;47.696;17.540;2023-03-26T04:45:36;9981352;;;9.88;56.44141
53089;BME280;38968;47.696;17.540;2023-03-26T04:50:35;9981712;;;9.81;56.76367
53089;BME280;38968;47.696;17.540;2023-03-26T04:55:44;9981448;;;9.84;57.4541
53089;BME280;38968;47.696;17.540;2023-03-26T05:00:35;9981173;;;9.92;57.05371
53089;BME280;38968;47.696;17.540;2023-03-26T05:05:36;9981792;;;9.86;57.17188
53089;BME280;38968;47.696;17.540;2023-03-26T05:10:36;9981627;;;9.81;57.58789
53089;BME280;38968;47.696;17.540;2023-03-26T05:15:36;9983768;;;9.46;58.53613
53089;BME280;38968;47.696;17.540;2023-03-26T05:20:36;9985125;;;9.07;60.22168
53089;BME280;38968;47.696;17.540;2023-03-26T05:25:35;9984396;;;9.32;60.49512
53089;BME280;38968;47.696;17.540;2023-03-26T05:30:36;9984014;;;9.56;60.03711
53089;BME280;38968;47.696;17.540;2023-03-26T05:35:36;9984678;;;9.79;59.43848
53089;BME280;38968;47.696;17.540;2023-03-26T05:40:36;9984397;;;9.89;59.37402
53089;BME280;38968;47.696;17.540;2023-03-26T05:45:35;9984754;;;9.85;59.75684
53089;BME280;38968;47.696;17.540;2023-03-26T05:50:36;9984534;;;10.12;58.73926
53089;BME280;38968;47.696;17.540;2023-03-26T05:55:35;9982867;;;10.21;58.01758
53089;BME280;38968;47.696;17.540;2023-03-26T06:00:36;9983797;;;10.37;57.14648
53089;BME280;38968;47.696;17.540;2023-03-26T06:05:36;9983442;;;10.41;56.60156
53089;BME280;38968;47.696;17.540;2023-03-26T06:10:38;9981968;;;10.37;56.33203
53089;BME280;38968;47.696;17.540;2023-03-26T06:15:36;9982284;;;10.56;56.01172
53089;BME280;38968;47.696;17.540;2023-03-26T06:20:36;9981925;;;10.61;55.28418
53089;BME280;38968;47.696;17.540;2023-03-26T06:25:37;9982451;;;11.03;54.83301
53089;BME280;38968;47.696;17.540;2023-03-26T06:30:36;9981244;;;11.36;54.35645
53089;BME280;38968;47.696;17.540;2023-03-26T06:35:36;9982128;;;11.31;54.2002
53089;BME280;38968;47.696;17.540;2023-03-26T06:40:35;9982543;;;11.78;52.39355
53089;BME280;38968;47.696;17.540;2023-03-26T06:45:36;9983948;;;11.75;53.20898
53089;BME280;38968;47.696;17.540;2023-03-26T06:50:35;9983914;;;11.52;53.04199
53089;BME280;38968;47.696;17.540;2023-03-26T06:55:36;9984759;;;12.02;53.24023
53089;BME280;38968;47.696;17.540;2023-03-26T07:00:35;9984166;;;12.29;52.35254
53089;BME280;38968;47.696;17.540;2023-03-26T07:05:37;9983973;;;12.02;52.49121
53089;BME280;38968;47.696;17.540;2023-03-26T07:10:36;9983966;;;12.05;52.83008
53089;BME280;38968;47.696;17.540;2023-03-26T07:15:35;9983310;;;11.48;54.22266
53089;BME280;38968;47.696;17.540;2023-03-26T07:20:36;9982322;;;12.33;53.18555
53089;BME280;38968;47.696;17.540;2023-03-26T07:25:36;9981888;;;12.32;53.41504
53089;BME280;38968;47.696;17.540;2023-03-26T07:36:00;9980760;;;12.92;52.27637
53089;BME280;38968;47.696;17.540;2023-03-26T07:40:45;9980254;;;13.15;51.93457
53089;BME280;38968;47.696;17.540;2023-03-26T07:45:40;9980089;;;13.42;51.20313
53089;BME280;38968;47.696;17.540;2023-03-26T07:50:36;9979623;;;12.93;52.54297
53089;BME280;38968;47.696;17.540;2023-03-26T07:55:52;9979420;;;14.13;50.23242
53089;BME280;38968;47.696;17.540;2023-03-26T08:00:41;9979527;;;14.07;49.44824
53089;BME280;38968;47.696;17.540;2023-03-26T08:05:46;9979077;;;13.58;50.49316
53089;BME280;38968;47.696;17.540;2023-03-26T08:15:39;9978791;;;14.17;50.00488
53089;BME280;38968;47.696;17.540;2023-03-26T08:20:46;9978269;;;14.67;49.42383
53089;BME280;38968;47.696;17.540;2023-03-26T08:25:49;9977673;;;14.85;49.57227
53089;BME280;38968;47.696;17.540;2023-03-26T08:30:38;9977167;;;15.26;48.56055
53089;BME280;38968;47.696;17.540;2023-03-26T08:35:36;9975083;;;15.65;47.68457
53089;BME280;38968;47.696;17.540;2023-03-26T08:55:51;9974831;;;15.83;46.90039
53089;BME280;38968;47.696;17.540;2023-03-26T09:10:58;9973864;;;16.24;46.62891
53089;BME280;38968;47.696;17.540;2023-03-26T09:30:49;9970408;;;17.26;43.58203
53089;BME280;38968;47.696;17.540;2023-03-26T09:40:41;9968278;;;17.29;43.93652
53089;BME280;38968;47.696;17.540;2023-03-26T10:00:57;9965458;;;17.47;43.28711
53089;BME280;38968;47.696;17.540;2023-03-26T10:30:43;9958711;;;18.88;37.55176
53089;BME280;38968;47.696;17.540;2023-03-26T10:35:40;9959634;;;19.27;38.2793
53089;BME280;38968;47.696;17.540;2023-03-26T10:50:51;9953498;;;18.73;37.26855
53089;BME280;38968;47.696;17.540;2023-03-26T10:55:43;9951777;;;19.7;33.44922
53089;BME280;38968;47.696;17.540;2023-03-26T11:00:38;9951281;;;20.07;32.63867
53089;BME280;38968;47.696;17.540;2023-03-26T11:06:00;9950592;;;19.76;29.84375
53089;BME280;38968;47.696;17.540;2023-03-26T11:15:48;9947370;;;19.82;30.23633
53089;BME280;38968;47.696;17.540;2023-03-26T11:20:55;9948043;;;19.14;29.87305
53089;BME280;38968;47.696;17.540;2023-03-26T11:25:44;9947995;;;19.66;29.14063
53089;BME280;38968;47.696;17.540;2023-03-26T11:31:04;9946312;;;20.09;29.51074
53089;BME280;38968;47.696;17.540;2023-03-26T11:35:49;9945831;;;19.3;31.8877
53089;BME280;38968;47.696;17.540;2023-03-26T11:40:40;9943189;;;19.85;30.23926
53089;BME280;38968;47.696;17.540;2023-03-26T11:45:38;9941912;;;20.19;31.88086
53089;BME280;38968;47.696;17.540;2023-03-26T11:50:39;9941450;;;20.08;30.57422
53089;BME280;38968;47.696;17.540;2023-03-26T11:55:40;9941039;;;20.71;29.99023
53089;BME280;38968;47.696;17.540;2023-03-26T12:00:36;9938353;;;20.88;29.95508
53089;BME280;38968;47.696;17.540;2023-03-26T12:05:46;9937884;;;20.92;30.67871
53089;BME280;38968;47.696;17.540;2023-03-26T12:10:38;9937671;;;21.1;31.10547
53089;BME280;38968;47.696;17.540;2023-03-26T12:15:40;9936874;;;20.97;31.4043
53089;BME280;38968;47.696;17.540;2023-03-26T12:20:38;9935540;;;19.92;32.56934
53089;BME280;38968;47.696;17.540;2023-03-26T12:25:37;9934819;;;21.86;30.94629
53089;BME280;38968;47.696;17.540;2023-03-26T12:30:49;9933034;;;22.12;30.47754
53089;BME280;38968;47.696;17.540;2023-03-26T12:35:36;9933103;;;21.91;30.42676
53089;BME280;38968;47.696;17.540;2023-03-26T12:40:36;9932428;;;21.37;29.80957
53089;BME280;38968;47.696;17.540;2023-03-26T12:45:43;9932188;;;21.58;28.86328
53089;BME280;38968;47.696;17.540;2023-03-26T13:00:55;9930130;;;22.21;28.3457
53089;BME280;38968;47.696;17.540;2023-03-26T13:10:49;9927792;;;22.13;27.66406
53089;BME280;38968;47.696;17.540;2023-03-26T13:15:51;9927748;;;22.99;27.0625
53089;BME280;38968;47.696;17.540;2023-03-26T13:26:04;9925234;;;23.35;28.19238
53089;BME280;38968;47.696;17.540;2023-03-26T13:30:40;9923994;;;23.57;28.19434
53089;BME280;38968;47.696;17.540;2023-03-26T13:50:40;9922083;;;23.84;27.11426
53089;BME280;38968;47.696;17.540;2023-03-26T13:55:44;9921138;;;24.63;26.56543
53089;BME280;38968;47.696;17.540;2023-03-26T14:00:53;9919345;;;25.15;25.60254
53089;BME280;38968;47.696;17.540;2023-03-26T14:05:41;9918575;;;25.01;25.94141
53089;BME280;38968;47.696;17.540;2023-03-26T14:10:42;9918256;;;25.07;25.80176
53089;BME280;38968;47.696;17.540;2023-03-26T14:16:00;9916875;;;24.62;26.6123
53089;BME280;38968;47.696;17.540;2023-03-26T14:21:19;9915475;;;25.39;26.38184
53089;BME280;38968;47.696;17.540;2023-03-26T14:31:03;9913551;;;25.04;25.48926
53089;BME280;38968;47.696;17.540;2023-03-26T14:35:41;9912627;;;25.09;25.2998
53089;BME280;38968;47.696;17.540;2023-03-26T14:40:46;9912665;;;24.03;26.33789
53089;BME280;38968;47.696;17.540;2023-03-26T14:50:54;9911719;;;23.25;27.03027
53089;BME280;38968;47.696;17.540;2023-03-26T14:56:19;9913052;;;21.79;29.17285
53089;BME280;38968;47.696;17.540;2023-03-26T15:11:04;9908591;;;20.13;31.71094
53089;BME280;38968;47.696;17.540;2023-03-26T15:35:59;9902873;;;19.71;32.2002
53089;BME280;38968;47.696;17.540;2023-03-26T15:40:55;9901540;;;19.33;33.30371
53089;BME280;38968;47.696;17.540;2023-03-26T15:45:45;9900641;;;19.35;33.28223
53089;BME280;38968;47.696;17.540;2023-03-26T15:55:51;9898219;;;19.14;34.14941
53089;BME280;38968;47.696;17.540;2023-03-26T16:00:41;9900891;;;19.11;34.54688
53089;BME280;38968;47.696;17.540;2023-03-26T16:10:55;9899780;;;18.79;35.59277
53089;BME280;38968;47.696;17.540;2023-03-26T16:15:37;9898848;;;18.59;35.88281
53089;BME280;38968;47.696;17.540;2023-03-26T16:20:47;9899378;;;18.59;36.16504
53089;BME280;38968;47.696;17.540;2023-03-26T16:25:52;9898448;;;18.66;36.15918
53089;BME280;38968;47.696;17.540;2023-03-26T16:30:38;9897156;;;18.89;35.78906
53089;BME280;38968;47.696;17.540;2023-03-26T16:36:00;9896997;;;18.86;36.02246
53089;BME280;38968;47.696;17.540;2023-03-26T16:40:50;9898381;;;18.77;36.23828
53089;BME280;38968;47.696;17.540;2023-03-26T16:50:49;9897322;;;18.5;36.72168
53089;BME280;38968;47.696;17.540;2023-03-26T16:55:50;9897263;;;18.18;37.52832
53089;BME280;38968;47.696;17.540;2023-03-26T17:00:46;9898381;;;18.5;37.22656
53089;BME280;38968;47.696;17.540;2023-03-26T17:10:54;9898738;;;18.22;38.0127
53089;BME280;38968;47.696;17.540;2023-03-26T17:25:59;9897375;;;18.28;38.6875
53089;BME280;38968;47.696;17.540;2023-03-26T17:31:11;9897791;;;18.32;38.47852
53089;BME280;38968;47.696;17.540;2023-03-26T17:35:43;9897831;;;18.12;39.24707
53089;BME280;38968;47.696;17.540;2023-03-26T17:40:52;9898544;;;17.83;39.97266
53089;BME280;38968;47.696;17.540;2023-03-26T17:45:38;9898128;;;17.93;39.94629
53089;BME280;38968;47.696;17.540;2023-03-26T17:50:55;9898202;;;17.95;39.98242
53089;BME280;38968;47.696;17.540;2023-03-26T17:55:40;9899358;;;17.8;40.77734
53089;BME280;38968;47.696;17.540;2023-03-26T18:00:41;9898428;;;18.01;40.29297
53089;BME280;38968;47.696;17.540;2023-03-26T18:05:38;9898173;;;18;40.13965
53089;BME280;38968;47.696;17.540;2023-03-26T18:20:38;9897203;;;17.72;41.61328
53089;BME280;38968;47.696;17.540;2023-03-26T18:25:37;9896295;;;17.61;41.81543
53089;BME280;38968;47.696;17.540;2023-03-26T18:30:43;9895578;;;17.49;42.61035
53089;BME280;38968;47.696;17.540;2023-03-26T18:35:42;9894877;;;17.48;43.19434
53089;BME280;38968;47.696;17.540;2023-03-26T18:40:41;9895564;;;17.08;44.7207
53089;BME280;38968;47.696;17.540;2023-03-26T18:45:38;9899806;;;17.49;44.63379
53089;BME280;38968;47.696;17.540;2023-03-26T18:50:38;9900981;;;16.22;54.15918
53089;BME280;38968;47.696;17.540;2023-03-26T18:55:37;9901902;;;16.31;53.73926
53089;BME280;38968;47.696;17.540;2023-03-26T19:00:37;9902377;;;16.55;52.2334
53089;BME280;38968;47.696;17.540;2023-03-26T19:05:37;9901212;;;16.44;46.23047
53089;BME280;38968;47.696;17.540;2023-03-26T19:10:39;9899295;;;16.24;43.82031
53089;BME280;38968;47.696;17.540;2023-03-26T19:15:37;9898209;;;16.31;42.60059
53089;BME280;38968;47.696;17.540;2023-03-26T19:20:41;9898189;;;16.18;41.1416
53089;BME280;38968;47.696;17.540;2023-03-26T19:25:45;9896428;;;16.18;40.97852
53089;BME280;38968;47.696;17.540;2023-03-26T19:30:38;9894864;;;16.31;40.65234
53089;BME280;38968;47.696;17.540;2023-03-26T19:35:38;9893725;;;16.31;41.31738
53089;BME280;38968;47.696;17.540;2023-03-26T19:40:39;9893491;;;16.4;41.78125
53089;BME280;38968;47.696;17.540;2023-03-26T19:45:37;9892923;;;16.32;41.94922
53089;BME280;38968;47.696;17.540;2023-03-26T19:50:42;9892241;;;16.44;41.31738
53089;BME280;38968;47.696;17.540;2023-03-26T19:55:38;9891414;;;16.5;41.86035
53089;BME280;38968;47.696;17.540;2023-03-26T20:00:38;9890754;;;16.27;42.60938
53089;BME280;38968;47.696;17.540;2023-03-26T20:05:37;9890829;;;16.29;42.86816
53089;BME280;38968;47.696;17.540;2023-03-26T20:10:38;9890214;;;16.44;41.91406
53089;BME280;38968;47.696;17.540;2023-03-26T20:15:38;9890612;;;16.51;40.62402
53089;BME280;38968;47.696;17.540;2023-03-26T20:20:37;9890433;;;16.52;42.70313
53089;BME280;38968;47.696;17.540;2023-03-26T20:25:37;9890720;;;16.63;42.15332
53089;BME280;38968;47.696;17.540;2023-03-26T20:30:37;9889628;;;16.69;40.43066
53089;BME280;38968;47.696;17.540;2023-03-26T20:35:37;9889511;;;16.59;41.63574
53089;BME280;38968;47.696;17.540;2023-03-26T20:40:38;9888205;;;16.42;41.67773
53089;BME280;38968;47.696;17.540;2023-03-26T20:45:36;9888823;;;16.26;43.26172
53089;BME280;38968;47.696;17.540;2023-03-26T20:50:37;9888695;;;16.18;43.88379
53089;BME280;38968;47.696;17.540;2023-03-26T20:55:37;9889207;;;16.05;46.76074
53089;BME280;38968;47.696;17.540;2023-03-26T21:00:36;9887754;;;15.98;48.96582
53089;BME280;38968;47.696;17.540;2023-03-26T21:05:36;9886803;;;15.95;46.55371
53089;BME280;38968;47.696;17.540;2023-03-26T21:10:37;9886869;;;15.99;47.66309
53089;BME280;38968;47.696;17.540;2023-03-26T21:15:36;9885450;;;16.01;46.90918
53089;BME280;38968;47.696;17.540;2023-03-26T21:20:36;9884778;;;15.96;47.05371
53089;BME280;38968;47.696;17.540;2023-03-26T21:30:36;9884703;;;15.78;45.37012
53089;BME280;38968;47.696;17.540;2023-03-26T21:35:37;9885642;;;15.5;46.22656
53089;BME280;38968;47.696;17.540;2023-03-26T21:40:37;9884374;;;15.41;46.99512
53089;BME280;38968;47.696;17.540;2023-03-26T21:45:37;9882903;;;15.21;47.97461
53089;BME280;38968;47.696;17.540;2023-03-26T21:50:36;9883747;;;15.44;48.44043
53089;BME280;38968;47.696;17.540;2023-03-26T21:55:40;9882216;;;15.19;49.36621
53089;BME280;38968;47.696;17.540;2023-03-26T22:10:36;9883275;;;15.17;45.76172
53089;BME280;38968;47.696;17.540;2023-03-26T22:15:36;9882419;;;15.3;46.86719
53089;BME280;38968;47.696;17.540;2023-03-26T22:20:36;9881169;;;15.17;49.59766
53089;BME280;38968;47.696;17.540;2023-03-26T22:25:37;9880350;;;14.9;52.07324
53089;BME280;38968;47.696;17.540;2023-03-26T22:30:36;9879866;;;14.83;52.30762
53089;BME280;38968;47.696;17.540;2023-03-26T22:35:40;9878427;;;14.73;49.49902
53089;BME280;38968;47.696;17.540;2023-03-26T22:40:36;9877895;;;14.57;48.80957
53089;BME280;38968;47.696;17.540;2023-03-26T22:45:36;9877223;;;14.51;49.03418
53089;BME280;38968;47.696;17.540;2023-03-26T22:50:38;9875716;;;15.04;48.04785
53089;BME280;38968;47.696;17.540;2023-03-26T22:55:36;9875395;;;15.3;47.64648
53089;BME280;38968;47.696;17.540;2023-03-26T23:00:36;9873864;;;14.89;47.8125
53089;BME280;38968;47.696;17.540;2023-03-26T23:05:36;9873295;;;14.97;48.0752
53089;BME280;38968;47.696;17.540;2023-03-26T23:10:36;9873869;;;14.72;48.60547
53089;BME280;38968;47.696;17.540;2023-03-26T23:15:36;9872990;;;14.89;48.11328
53089;BME280;38968;47.696;17.540;2023-03-26T23:20:36;9872761;;;15.14;48.14063
53089;BME280;38968;47.696;17.540;2023-03-26T23:25:36;9871919;;;15.23;47.87207
53089;BME280;38968;47.696;17.540;2023-03-26T23:30:36;9872218;;;15.02;49.21973
53089;BME280;38968;47.696;17.540;2023-03-26T23:35:37;9871573;;;15.07;49.05078
53089;BME280;38968;47.696;17.540;2023-03-26T23:40:36;9871622;;;14.98;48.72754
53089;BME280;38968;47.696;17.540;2023-03-26T23:45:36;9871786;;;15.01;48.71777
53089;BME280;38968;47.696;17.540;2023-03-26T23:50:36;9871512;;;15.02;47.60449
53089;BME280;38968;47.696;17.540;2023-03-26T23:55:36;9870503;;;14.94;48.81543
